Time;durP1;ratioP1;P1;durP2;ratioP2;P2;SDS_P1;SDS_P2;PMS_P1;PMS_P2;Temp;Humidity;BMP_temperature;BMP_pressure;BME280_temperature;BME280_humidity;BME280_pressure;Samples;Min_cycle;Max_cycle;Signal;HPM_P1;HPM_P2
2022/04/09 00:02:21;;;;;;;0.85;0.47;;;;;;;23.75;58.85;97984.63;5054983;28;20032;-67
2022/04/09 00:04:47;;;;;;;1.38;0.30;;;;;;;23.78;59.33;97988.72;5054545;28;20135;-67
2022/04/09 00:07:13;;;;;;;2.25;0.35;;;;;;;23.79;58.69;98004.09;5055936;28;20052;-67
2022/04/09 00:09:38;;;;;;;0.60;0.30;;;;;;;23.83;58.20;98007.91;5055539;28;20448;-68
2022/04/09 00:12:04;;;;;;;2.92;0.77;;;;;;;23.88;58.34;98005.19;5054789;28;20104;-67
2022/04/09 00:14:29;;;;;;;1.85;0.43;;;;;;;23.90;58.84;98011.22;5055512;28;20460;-67
2022/04/09 00:16:54;;;;;;;0.95;0.32;;;;;;;23.92;58.76;98006.28;5055859;28;20024;-67
2022/04/09 00:19:20;;;;;;;1.65;0.50;;;;;;;23.94;58.15;98004.91;5054098;28;20029;-67
2022/04/09 00:21:46;;;;;;;1.63;0.30;;;;;;;23.95;57.16;98008.47;5055828;28;20029;-67
2022/04/09 00:24:12;;;;;;;0.77;0.30;;;;;;;24.00;57.41;98005.72;5057207;28;20529;-67
2022/04/09 00:26:38;;;;;;;1.58;0.35;;;;;;;23.98;57.67;98011.47;5055514;28;20366;-67
2022/04/09 00:29:03;;;;;;;1.15;0.40;;;;;;;24.01;57.08;98010.09;5054719;28;20025;-67
2022/04/09 00:31:28;;;;;;;0.77;0.25;;;;;;;24.05;57.35;98004.91;5058116;28;20052;-67
2022/04/09 00:33:54;;;;;;;0.75;0.43;;;;;;;24.07;56.47;98009.00;5055162;28;20025;-67
2022/04/09 00:36:20;;;;;;;1.52;0.30;;;;;;;24.06;57.14;98001.88;5055306;28;20025;-67
2022/04/09 00:38:45;;;;;;;2.92;0.40;;;;;;;24.10;57.01;98008.44;5055489;28;20067;-67
2022/04/09 00:41:10;;;;;;;2.30;0.43;;;;;;;24.09;56.01;98016.97;5055591;28;20029;-67
2022/04/09 00:43:40;;;;;;;2.10;0.38;;;;;;;24.13;56.89;98002.41;5055310;28;20419;-67
2022/04/09 00:46:05;;;;;;;1.85;0.30;;;;;;;24.14;56.56;98026.00;5055378;28;20021;-68
2022/04/09 00:48:31;;;;;;;2.38;0.60;;;;;;;24.16;56.24;98022.97;5054713;28;20541;-68
2022/04/09 00:50:56;;;;;;;1.95;0.70;;;;;;;24.19;56.62;98022.44;5055106;28;20029;-68
2022/04/09 00:53:21;;;;;;;0.75;0.40;;;;;;;24.20;56.61;98024.09;5055856;28;20526;-67
2022/04/09 00:58:33;;;;;;;1.05;0.30;;;;;;;24.20;56.10;98024.91;5055279;28;20028;-67
2022/04/09 01:01:00;;;;;;;2.17;0.30;;;;;;;24.25;55.90;98029.56;5055215;28;20025;-67
2022/04/09 01:03:27;;;;;;;0.88;0.40;;;;;;;24.23;55.86;98034.50;5055338;28;20404;-67
2022/04/09 01:05:52;;;;;;;1.60;0.40;;;;;;;24.24;55.38;98026.00;5053716;28;20095;-66
2022/04/09 01:08:18;;;;;;;1.17;0.50;;;;;;;24.26;56.46;98018.31;5053306;28;20056;-67
2022/04/09 01:10:50;;;;;;;1.48;0.43;;;;;;;24.26;55.91;98023.78;5055109;28;20031;-67
2022/04/09 01:13:16;;;;;;;1.30;0.40;;;;;;;24.26;55.36;98023.78;5057890;28;20032;-67
2022/04/09 01:15:41;;;;;;;1.52;0.30;;;;;;;24.27;55.80;98024.63;5062696;28;20025;-67
2022/04/09 01:18:06;;;;;;;0.90;0.50;;;;;;;24.29;55.13;98028.75;5054605;28;20464;-67
2022/04/09 01:20:32;;;;;;;1.85;0.63;;;;;;;24.29;54.85;98033.41;5054628;28;20028;-67
2022/04/09 01:22:57;;;;;;;1.30;0.40;;;;;;;24.28;55.29;98048.22;5054842;28;20021;-68
2022/04/09 01:25:22;;;;;;;0.80;0.63;;;;;;;24.33;55.23;98044.66;5053106;28;20455;-67
2022/04/09 01:27:48;;;;;;;2.60;0.50;;;;;;;24.31;55.11;98050.44;5054578;28;20029;-67
2022/04/09 01:30:15;;;;;;;1.20;0.30;;;;;;;24.32;55.35;98043.03;5054295;28;20059;-67
2022/04/09 01:32:40;;;;;;;2.35;0.50;;;;;;;24.33;55.18;98044.66;5054065;28;20040;-67
2022/04/09 01:35:06;;;;;;;2.15;0.60;;;;;;;24.34;54.94;98046.31;5054600;28;20385;-67
2022/04/09 01:37:31;;;;;;;1.33;0.30;;;;;;;24.35;55.48;98048.78;5053649;28;20029;-67
2022/04/09 01:39:57;;;;;;;4.15;0.40;;;;;;;24.36;55.14;98055.94;5055954;28;20025;-67
2022/04/09 01:42:24;;;;;;;2.15;0.30;;;;;;;24.37;54.64;98054.84;5054166;28;20166;-67
2022/04/09 01:44:50;;;;;;;2.17;0.75;;;;;;;24.37;54.82;98057.59;5053854;28;20020;-68
2022/04/09 01:47:15;;;;;;;0.75;0.20;;;;;;;24.38;55.56;98050.16;5054224;28;20036;-67
2022/04/09 01:49:41;;;;;;;3.53;0.55;;;;;;;24.36;55.06;98053.19;5054566;28;20025;-68
2022/04/09 01:52:07;;;;;;;0.70;0.30;;;;;;;24.39;55.26;98054.56;5054099;28;20526;-68
2022/04/09 01:54:32;;;;;;;2.70;0.57;;;;;;;24.39;55.36;98055.38;5053847;28;20017;-67
2022/04/09 01:56:58;;;;;;;1.73;0.40;;;;;;;24.39;54.81;98054.56;5054385;28;20032;-67
2022/04/09 01:59:23;;;;;;;2.25;0.50;;;;;;;24.39;55.24;98054.56;5058829;28;20363;-68
2022/04/09 02:01:48;;;;;;;1.48;0.50;;;;;;;24.38;54.65;98059.22;5054989;28;20032;-68
2022/04/09 02:04:15;;;;;;;1.13;0.68;;;;;;;24.41;55.19;98057.84;5053796;28;20066;-68
2022/04/09 02:06:42;;;;;;;1.02;0.30;;;;;;;24.43;55.15;98061.94;5053675;28;20025;-68
2022/04/09 02:09:13;;;;;;;2.03;0.50;;;;;;;24.41;54.67;98068.81;5052332;28;20107;-68
2022/04/09 02:11:40;;;;;;;0.63;0.30;;;;;;;24.41;55.29;98064.16;5053299;28;20071;-68
2022/04/09 02:14:10;;;;;;;2.67;0.70;;;;;;;24.43;54.92;98077.59;5053653;28;20020;-68
2022/04/09 02:16:36;;;;;;;1.40;0.32;;;;;;;24.44;54.85;98065.50;5053468;28;20032;-67
2022/04/09 02:19:02;;;;;;;1.08;0.30;;;;;;;24.45;54.93;98069.91;5053826;28;20025;-68
2022/04/09 02:21:27;;;;;;;1.80;0.30;;;;;;;24.43;55.30;98075.69;5053340;28;20422;-68
2022/04/09 02:23:52;;;;;;;1.23;0.30;;;;;;;24.46;55.20;98071.56;5053229;28;20360;-67
2022/04/09 02:26:18;;;;;;;1.92;0.52;;;;;;;24.46;55.30;98077.03;5052804;28;20468;-68
2022/04/09 02:28:46;;;;;;;1.65;0.40;;;;;;;24.47;55.12;98073.19;5055929;28;20021;-68
2022/04/09 02:31:12;;;;;;;1.90;0.45;;;;;;;24.45;54.29;98073.47;5051797;28;20053;-67
2022/04/09 02:33:37;;;;;;;1.55;0.28;;;;;;;24.47;55.20;98067.69;5053061;28;20452;-68
2022/04/09 02:36:03;;;;;;;1.95;0.20;;;;;;;24.48;54.64;98074.84;5053748;28;20017;-68
2022/04/09 02:38:28;;;;;;;0.70;0.20;;;;;;;24.47;55.23;98068.53;5051902;28;20454;-68
2022/04/09 02:40:53;;;;;;;1.90;0.35;;;;;;;24.49;54.73;98068.25;5056296;28;20108;-68
2022/04/09 02:43:19;;;;;;;1.30;0.35;;;;;;;24.48;54.54;98074.84;5058909;28;20025;-68
2022/04/09 02:45:44;;;;;;;1.02;0.30;;;;;;;24.48;55.07;98063.84;5053122;28;20025;-68
2022/04/09 02:48:10;;;;;;;1.60;0.70;;;;;;;24.47;54.50;98081.44;5052781;28;20399;-68
2022/04/09 02:50:35;;;;;;;1.50;0.43;;;;;;;24.47;54.46;98078.69;5054355;28;20039;-68
2022/04/09 02:53:00;;;;;;;0.73;0.30;;;;;;;24.49;54.73;98076.47;5053353;28;20025;-67
2022/04/09 02:55:26;;;;;;;1.23;0.50;;;;;;;24.50;54.53;98086.38;5052476;28;20025;-68
2022/04/09 02:57:51;;;;;;;0.68;0.30;;;;;;;24.48;54.89;98080.31;5053300;28;20449;-68
2022/04/09 03:00:17;;;;;;;1.30;0.40;;;;;;;24.50;54.77;98086.38;5053605;28;20047;-67
2022/04/09 03:02:42;;;;;;;0.88;0.32;;;;;;;24.50;54.77;98084.44;5053021;28;20040;-67
2022/04/09 03:05:08;;;;;;;1.83;0.57;;;;;;;24.51;55.08;98086.09;5053478;28;20480;-67
2022/04/09 03:07:34;;;;;;;1.25;0.40;;;;;;;24.50;54.59;98089.09;5052874;28;20033;-67
2022/04/09 03:09:59;;;;;;;4.60;0.93;;;;;;;24.49;54.78;98088.28;5052810;28;20464;-67
2022/04/09 03:12:25;;;;;;;1.42;0.40;;;;;;;24.52;54.94;98081.41;5052563;28;20021;-68
2022/04/09 03:14:50;;;;;;;2.25;0.60;;;;;;;24.51;54.75;98086.09;5052927;28;20033;-67
2022/04/09 03:17:15;;;;;;;0.40;0.20;;;;;;;24.48;53.97;98083.91;5052363;28;20408;-67
2022/04/09 03:19:40;;;;;;;0.73;0.30;;;;;;;24.49;54.17;98081.97;5052338;28;20061;-68
2022/04/09 03:22:06;;;;;;;1.55;0.30;;;;;;;24.51;54.21;98083.34;5055778;28;20021;-67
2022/04/09 03:24:31;;;;;;;1.95;0.43;;;;;;;24.51;54.57;98082.50;5053874;28;20021;-68
2022/04/09 03:26:56;;;;;;;2.90;0.60;;;;;;;24.52;55.17;98084.16;5051996;28;20075;-67
2022/04/09 03:29:22;;;;;;;1.90;0.30;;;;;;;24.49;53.92;98087.47;5052084;28;20029;-68
2022/04/09 03:31:47;;;;;;;1.33;0.30;;;;;;;24.52;54.77;98086.91;5052814;28;20446;-68
2022/04/09 03:34:14;;;;;;;1.38;0.30;;;;;;;24.52;54.28;98089.66;5052632;28;20049;-68
2022/04/09 03:36:39;;;;;;;2.08;0.40;;;;;;;24.50;54.67;98083.63;5052997;28;20108;-68
2022/04/09 03:39:05;;;;;;;0.70;0.20;;;;;;;24.55;54.74;98094.63;5052537;28;20063;-68
2022/04/09 03:41:30;;;;;;;1.40;0.35;;;;;;;24.54;54.03;98082.81;5052668;28;20442;-69
2022/04/09 03:43:55;;;;;;;0.95;0.35;;;;;;;24.53;54.84;98089.41;5051583;28;20508;-68
2022/04/09 03:46:21;;;;;;;1.17;0.30;;;;;;;24.55;54.99;98086.38;5055357;28;20033;-68
2022/04/09 03:48:46;;;;;;;1.75;0.40;;;;;;;24.53;54.26;98074.84;5051028;28;20087;-68
2022/04/09 03:51:12;;;;;;;1.38;0.50;;;;;;;24.52;55.04;98086.91;5051095;28;20068;-68
2022/04/09 03:53:38;;;;;;;3.13;0.60;;;;;;;24.51;55.02;98083.34;5054110;28;20032;-68
2022/04/09 03:56:04;;;;;;;1.50;0.30;;;;;;;24.54;54.02;98084.72;5061732;28;20044;-68
2022/04/09 03:58:29;;;;;;;1.65;0.75;;;;;;;24.53;54.08;98080.34;5051531;28;20033;-68
2022/04/09 04:00:55;;;;;;;1.52;0.43;;;;;;;24.55;54.44;98078.13;5052592;28;20103;-68
2022/04/09 04:03:20;;;;;;;0.40;0.28;;;;;;;24.70;53.88;98089.09;5051207;28;20017;-69
2022/04/09 04:05:47;;;;;;;2.42;0.95;;;;;;;24.81;53.35;98090.69;5051084;28;20533;-69
2022/04/09 04:08:13;;;;;;;1.83;0.50;;;;;;;24.88;53.54;98093.97;5053148;28;20036;-69
2022/04/09 04:10:38;;;;;;;0.80;0.57;;;;;;;24.95;53.90;98092.84;5055904;28;20032;-69
2022/04/09 04:13:05;;;;;;;1.27;0.32;;;;;;;25.00;53.70;98087.34;5058171;28;20051;-68
2022/04/09 04:15:31;;;;;;;1.70;0.45;;;;;;;25.06;52.74;98087.06;5056506;28;20033;-68
2022/04/09 04:17:56;;;;;;;1.85;0.50;;;;;;;25.10;53.17;98088.13;5056582;28;20032;-67
2022/04/09 04:20:23;;;;;;;1.33;0.30;;;;;;;25.11;53.00;98088.97;5054038;28;20372;-67
2022/04/09 04:22:51;;;;;;;1.98;0.45;;;;;;;25.13;52.86;98097.75;5055262;28;20029;-67
2022/04/09 04:25:16;;;;;;;1.33;0.30;;;;;;;25.17;53.21;98085.06;5055144;28;20021;-68
2022/04/09 04:27:47;;;;;;;2.05;0.68;;;;;;;25.21;53.13;98088.94;5055080;28;20021;-68
2022/04/09 04:30:13;;;;;;;2.13;0.30;;;;;;;25.22;52.47;98101.56;5054885;28;20051;-69
2022/04/09 04:32:39;;;;;;;2.20;0.55;;;;;;;25.24;53.03;98093.84;5055454;28;20024;-68
2022/04/09 04:35:05;;;;;;;1.33;0.45;;;;;;;25.27;52.22;98085.03;5058591;28;20108;-68
2022/04/09 04:37:44;;;;;;;2.50;0.43;;;;;;;25.33;52.58;98092.16;5054775;28;20059;-68
2022/04/09 04:40:11;;;;;;;2.60;0.50;;;;;;;25.32;52.70;98090.50;5054871;28;20060;-68
2022/04/09 04:42:36;;;;;;;3.38;0.63;;;;;;;25.32;52.60;98096.00;5054765;28;20464;-68
2022/04/09 04:45:04;;;;;;;1.23;0.45;;;;;;;25.35;52.28;98100.94;5054962;28;20035;-68
2022/04/09 04:47:29;;;;;;;1.10;0.35;;;;;;;25.33;52.26;98094.91;5054709;28;20035;-68
2022/04/09 04:49:54;;;;;;;1.60;0.63;;;;;;;25.36;52.13;98102.59;5055041;28;20480;-68
2022/04/09 04:52:20;;;;;;;1.25;0.40;;;;;;;25.32;50.71;98101.50;5054570;28;20040;-68
2022/04/09 04:54:45;;;;;;;0.55;0.15;;;;;;;25.32;50.75;98096.00;5054943;28;20474;-68
2022/04/09 04:57:10;;;;;;;1.88;0.38;;;;;;;25.34;49.26;98098.47;5054876;28;20539;-68
2022/04/09 04:59:36;;;;;;;1.02;0.50;;;;;;;25.34;48.79;98101.22;5054509;28;20025;-68
2022/04/09 05:02:01;;;;;;;1.13;0.30;;;;;;;25.33;49.01;98100.41;5055095;28;20024;-68
2022/04/09 05:04:26;;;;;;;0.82;0.20;;;;;;;25.36;49.06;98099.84;5064998;28;20020;-66
2022/04/09 05:06:52;;;;;;;1.40;0.40;;;;;;;25.38;48.64;98105.88;5056422;28;20023;-68
2022/04/09 05:09:18;;;;;;;0.60;0.30;;;;;;;25.35;48.52;98106.44;5054259;28;20047;-67
2022/04/09 05:11:44;;;;;;;1.15;0.40;;;;;;;25.38;47.31;98105.06;5054715;28;20391;-67
2022/04/09 05:14:09;;;;;;;0.77;0.40;;;;;;;25.38;47.96;98088.56;5054283;28;20021;-68
2022/04/09 05:16:35;;;;;;;1.73;0.28;;;;;;;25.36;47.87;98105.34;5054293;28;20086;-68
2022/04/09 05:19:00;;;;;;;1.35;0.32;;;;;;;25.39;47.08;98096.53;5054231;28;20021;-68
2022/04/09 05:21:26;;;;;;;1.95;0.60;;;;;;;25.39;47.00;98102.03;5054553;28;20464;-68
2022/04/09 05:23:51;;;;;;;0.90;0.28;;;;;;;25.40;47.77;98109.16;5055131;28;20033;-68
2022/04/09 05:26:16;;;;;;;1.38;1.10;;;;;;;25.41;46.89;98097.06;5054095;28;20025;-68
2022/04/09 05:28:42;;;;;;;0.73;0.22;;;;;;;25.40;46.58;98100.94;5063503;28;20020;-67
2022/04/09 05:31:09;;;;;;;1.20;0.30;;;;;;;25.41;46.33;98110.00;5073486;28;20369;-67
2022/04/09 05:33:34;;;;;;;1.10;0.38;;;;;;;25.40;47.04;98109.16;5053890;28;20456;-68
2022/04/09 05:36:01;;;;;;;1.15;0.20;;;;;;;25.40;46.46;98108.34;5053962;28;20040;-68
2022/04/09 05:38:26;;;;;;;0.55;0.20;;;;;;;25.41;47.44;98110.81;5053646;28;20513;-68
2022/04/09 05:40:51;;;;;;;1.25;0.30;;;;;;;25.43;47.16;98116.84;5053881;28;20115;-68
2022/04/09 05:43:17;;;;;;;1.20;0.32;;;;;;;25.44;46.92;98109.41;5053606;28;20031;-67
2022/04/09 05:45:42;;;;;;;1.73;0.15;;;;;;;25.43;46.64;98111.34;5053725;28;20031;-67
2022/04/09 05:48:08;;;;;;;1.50;0.28;;;;;;;25.40;46.54;98106.44;5055069;28;20021;-68
2022/04/09 05:50:33;;;;;;;1.52;0.25;;;;;;;25.42;46.40;98112.47;5057073;28;20108;-67
2022/04/09 05:52:58;;;;;;;0.40;0.20;;;;;;;25.47;46.98;98120.69;5053643;28;20025;-68
2022/04/09 05:55:23;;;;;;;0.85;0.40;;;;;;;25.47;46.47;98117.91;5053496;28;20049;-68
2022/04/09 05:57:49;;;;;;;1.67;0.47;;;;;;;25.46;46.72;98113.53;5053411;28;20027;-68
2022/04/09 06:00:16;;;;;;;1.08;0.50;;;;;;;25.44;46.65;98115.75;5060210;28;20067;-66
2022/04/09 06:02:42;;;;;;;0.82;0.25;;;;;;;25.49;46.45;98123.97;5053985;28;20380;-66
2022/04/09 06:05:08;;;;;;;0.43;0.17;;;;;;;25.48;46.68;98125.06;5053441;28;20033;-67
2022/04/09 06:07:33;;;;;;;0.70;0.22;;;;;;;25.52;45.78;98117.06;5053565;28;20352;-67
2022/04/09 06:09:59;;;;;;;0.77;0.20;;;;;;;25.47;46.52;98120.69;5053301;28;20056;-67
2022/04/09 06:12:24;;;;;;;1.13;0.20;;;;;;;25.52;46.36;98127.25;5053208;28;20057;-66
2022/04/09 06:14:50;;;;;;;0.38;0.20;;;;;;;25.51;46.23;98118.16;5053504;28;20051;-67
2022/04/09 06:17:15;;;;;;;0.57;0.45;;;;;;;25.49;45.88;98121.22;5053365;28;20021;-67
2022/04/09 06:19:40;;;;;;;1.17;0.40;;;;;;;25.54;46.22;98119.56;5053759;28;20029;-67
2022/04/09 06:22:06;;;;;;;1.08;0.10;;;;;;;25.56;46.25;98126.41;5053394;28;20021;-69
2022/04/09 06:24:31;;;;;;;0.57;0.10;;;;;;;25.54;46.49;98125.06;5053381;28;20040;-66
2022/04/09 06:26:56;;;;;;;2.05;0.40;;;;;;;25.53;46.17;98123.38;5054287;28;20376;-67
2022/04/09 06:29:22;;;;;;;0.35;0.10;;;;;;;25.53;46.71;98128.88;5064655;28;20064;-66
2022/04/09 06:31:47;;;;;;;0.77;0.20;;;;;;;25.54;46.02;98136.06;5057261;28;20550;-68
2022/04/09 06:34:16;;;;;;;1.35;0.50;;;;;;;25.52;46.48;98132.75;5053200;28;20024;-68
2022/04/09 06:36:41;;;;;;;2.67;0.30;;;;;;;25.53;46.27;98131.63;5051879;28;20036;-68
2022/04/09 06:39:06;;;;;;;1.13;0.28;;;;;;;25.52;46.33;98127.25;5052934;28;20021;-67
2022/04/09 06:41:33;;;;;;;2.13;0.30;;;;;;;25.50;45.97;98117.34;5052883;28;20025;-67
2022/04/09 06:43:59;;;;;;;1.15;0.30;;;;;;;25.53;46.49;98115.13;5053345;28;20094;-67
2022/04/09 06:46:24;;;;;;;0.82;0.22;;;;;;;25.53;46.25;98118.75;5053215;28;20100;-67
2022/04/09 06:48:50;;;;;;;0.85;0.25;;;;;;;25.57;45.96;98119.00;5052993;28;20031;-67
2022/04/09 06:51:16;;;;;;;0.65;0.20;;;;;;;25.57;46.56;98119.81;5052854;28;20021;-67
2022/04/09 06:53:41;;;;;;;1.45;0.20;;;;;;;25.57;45.77;98119.81;5052812;28;20032;-67
2022/04/09 06:56:06;;;;;;;0.95;0.60;;;;;;;25.56;46.35;98118.16;5052660;28;20024;-67
2022/04/09 06:58:33;;;;;;;0.45;0.20;;;;;;;25.56;45.44;98111.84;5052727;28;20025;-67
2022/04/09 07:00:59;;;;;;;1.13;0.40;;;;;;;25.53;45.55;98117.88;5053394;28;20720;-67
2022/04/09 07:03:24;;;;;;;1.15;0.20;;;;;;;25.53;45.94;98112.38;5051601;28;20024;-67
2022/04/09 07:05:49;;;;;;;0.65;0.50;;;;;;;25.58;46.29;98115.13;5052748;28;20482;-67
2022/04/09 07:08:15;;;;;;;2.05;0.22;;;;;;;25.58;45.97;98120.63;5052529;28;20025;-68
2022/04/09 07:10:41;;;;;;;0.40;0.10;;;;;;;25.54;46.18;98120.38;5064270;28;20013;-67
2022/04/09 07:13:06;;;;;;;1.70;0.68;;;;;;;25.59;46.04;98127.78;5065162;28;20096;-67
2022/04/09 07:15:32;;;;;;;1.27;0.40;;;;;;;25.57;46.14;98132.75;5051229;28;20025;-67
2022/04/09 07:17:58;;;;;;;1.85;0.50;;;;;;;25.58;45.94;98121.44;5053213;28;20025;-67
2022/04/09 07:20:23;;;;;;;2.13;0.50;;;;;;;25.59;46.13;98125.84;5051431;28;20048;-67
2022/04/09 07:22:48;;;;;;;0.75;0.50;;;;;;;25.60;46.51;98134.91;5053382;28;20230;-67
2022/04/09 07:25:16;;;;;;;0.57;0.20;;;;;;;25.59;45.59;98128.59;5059357;28;20092;-67
2022/04/09 07:27:44;;;;;;;0.73;0.30;;;;;;;25.60;45.71;98134.91;5053139;28;20134;-67
2022/04/09 07:30:18;;;;;;;0.77;0.20;;;;;;;25.58;45.71;98134.38;5053374;28;20056;-67
2022/04/09 07:32:44;;;;;;;0.82;0.30;;;;;;;25.60;46.25;98140.41;5052723;28;20028;-67
2022/04/09 07:35:14;;;;;;;0.70;0.20;;;;;;;25.61;45.64;98147.56;5052488;28;20025;-67
2022/04/09 07:37:45;;;;;;;0.55;0.20;;;;;;;25.60;45.47;98145.91;5052392;28;20070;-67
2022/04/09 07:40:13;;;;;;;2.28;0.32;;;;;;;25.63;45.64;98139.84;5052594;28;20021;-67
2022/04/09 07:42:40;;;;;;;1.52;0.28;;;;;;;25.61;45.62;98139.31;5052722;28;20035;-67
2022/04/09 07:45:06;;;;;;;0.98;0.22;;;;;;;25.61;46.14;98147.56;5056162;28;20538;-67
2022/04/09 07:47:32;;;;;;;1.95;0.40;;;;;;;25.61;46.33;98164.06;5056614;28;20033;-67
2022/04/09 07:49:57;;;;;;;0.75;0.30;;;;;;;25.55;46.99;98157.78;5058564;28;20078;-68
2022/04/09 07:52:23;;;;;;;1.45;0.40;;;;;;;24.79;48.65;98161.56;5056604;28;20028;-68
2022/04/09 07:54:48;;;;;;;0.45;0.25;;;;;;;24.40;50.44;98166.03;5056616;28;20432;-68
2022/04/09 07:57:13;;;;;;;1.25;0.43;;;;;;;24.07;48.21;98162.69;5056218;28;20017;-68
2022/04/09 07:59:39;;;;;;;1.45;0.30;;;;;;;23.96;45.39;98172.81;5056061;28;20021;-68
2022/04/09 08:02:04;;;;;;;1.27;0.20;;;;;;;23.77;46.88;98179.06;5056682;28;20403;-68
2022/04/09 08:04:29;;;;;;;2.15;0.30;;;;;;;23.66;44.60;98179.03;5055986;28;20025;-67
2022/04/09 08:06:55;;;;;;;0.68;0.30;;;;;;;23.70;44.45;98169.19;5056462;28;20021;-67
2022/04/09 08:09:20;;;;;;;0.47;0.20;;;;;;;23.65;44.00;98169.16;5055905;28;20025;-67
2022/04/09 08:11:45;;;;;;;1.65;0.50;;;;;;;23.60;42.78;98179.31;5054598;28;20048;-67
2022/04/09 08:14:11;;;;;;;0.45;0.20;;;;;;;23.53;43.12;98174.06;5055475;28;20118;-67
2022/04/09 08:16:38;;;;;;;1.20;0.20;;;;;;;23.56;43.75;98179.00;5060104;28;20106;-68
2022/04/09 08:19:03;;;;;;;1.35;0.20;;;;;;;23.56;42.76;98178.16;5055640;28;20032;-68
2022/04/09 08:21:28;;;;;;;0.80;0.63;;;;;;;23.49;42.91;98183.88;5055616;28;20029;-68
2022/04/09 08:23:54;;;;;;;0.73;0.40;;;;;;;23.47;43.08;98190.72;5054409;28;20460;-67
2022/04/09 08:26:19;;;;;;;1.17;0.20;;;;;;;23.39;43.04;98183.88;5055574;28;20036;-67
2022/04/09 08:28:44;;;;;;;0.50;0.50;;;;;;;23.44;42.72;98186.63;5055416;28;20035;-67
2022/04/09 08:31:10;;;;;;;0.50;0.30;;;;;;;23.50;43.13;98188.28;5064086;28;20099;-68
2022/04/09 08:33:35;;;;;;;0.55;0.20;;;;;;;23.52;43.86;98191.59;5054988;28;20422;-67
2022/04/09 08:36:04;;;;;;;1.13;0.30;;;;;;;23.56;44.01;98197.38;5055432;28;20079;-67
2022/04/09 08:38:30;;;;;;;1.52;0.20;;;;;;;23.58;43.59;98203.44;5055012;28;20346;-67
2022/04/09 08:40:55;;;;;;;0.52;0.22;;;;;;;23.53;44.04;98204.22;5054037;28;20025;-68
2022/04/09 08:43:21;;;;;;;2.17;0.32;;;;;;;23.55;44.49;98199.28;5055335;28;20029;-67
2022/04/09 08:45:47;;;;;;;0.57;0.22;;;;;;;23.50;44.74;98210.22;5055248;28;20476;-67
2022/04/09 08:48:14;;;;;;;1.70;0.30;;;;;;;23.59;44.38;98211.38;5054916;28;20044;-67
2022/04/09 08:50:42;;;;;;;0.93;0.50;;;;;;;23.50;44.71;98223.91;5055917;28;20403;-68
2022/04/09 08:53:08;;;;;;;2.30;0.40;;;;;;;23.53;44.67;98220.66;5055176;28;20049;-67
2022/04/09 08:55:37;;;;;;;0.80;0.20;;;;;;;23.50;44.67;98217.59;5053138;28;20451;-68
2022/04/09 08:58:04;;;;;;;0.57;0.47;;;;;;;23.51;44.85;98225.56;5053399;28;20044;-68
2022/04/09 09:00:30;;;;;;;1.10;0.20;;;;;;;23.46;44.46;98222.81;5053357;28;20016;-68
2022/04/09 09:02:58;;;;;;;1.25;0.40;;;;;;;23.43;44.59;98223.34;5054746;28;20028;-68
2022/04/09 09:05:30;;;;;;;0.25;0.20;;;;;;;23.48;44.78;98230.75;5057337;28;20093;-68
2022/04/09 09:07:56;;;;;;;0.35;0.20;;;;;;;23.48;44.36;98233.50;5054655;28;20100;-68
2022/04/09 09:10:21;;;;;;;0.88;0.20;;;;;;;23.44;44.34;98235.97;5063766;28;20076;-68
2022/04/09 09:13:04;;;;;;;1.40;0.30;;;;;;;23.46;44.87;98236.50;5054490;28;20063;-68
2022/04/09 09:15:30;;;;;;;1.85;0.20;;;;;;;23.44;44.40;98244.19;5054525;28;20467;-68
2022/04/09 09:17:57;;;;;;;1.25;0.38;;;;;;;23.44;44.71;98246.09;5054486;28;20028;-68
2022/04/09 09:20:24;;;;;;;0.98;0.30;;;;;;;23.44;44.30;98246.94;5054428;28;20028;-68
2022/04/09 09:22:50;;;;;;;0.50;0.20;;;;;;;23.42;44.93;98254.59;5054622;28;20021;-68
2022/04/09 09:25:15;;;;;;;2.65;0.30;;;;;;;23.38;44.47;98245.25;5054413;28;20025;-68
2022/04/09 09:27:41;;;;;;;0.88;0.25;;;;;;;23.42;44.54;98251.84;5054398;28;20029;-68
2022/04/09 09:30:08;;;;;;;1.02;0.30;;;;;;;23.39;44.23;98255.97;5054458;28;20411;-67
2022/04/09 09:32:35;;;;;;;1.88;0.32;;;;;;;23.45;44.10;98250.50;5055285;28;20017;-68
2022/04/09 09:35:01;;;;;;;1.17;0.30;;;;;;;23.37;44.15;98258.16;5052970;28;20039;-68
2022/04/09 09:37:29;;;;;;;0.77;0.32;;;;;;;23.32;44.22;98260.00;5054343;28;20028;-67
2022/04/09 09:39:55;;;;;;;0.77;0.30;;;;;;;23.38;43.93;98261.72;5054112;28;20541;-68
2022/04/09 09:42:22;;;;;;;0.52;0.17;;;;;;;23.35;44.12;98265.00;5053736;28;20060;-68
2022/04/09 09:44:48;;;;;;;0.35;0.25;;;;;;;23.37;43.47;98268.28;5054090;28;20070;-68
2022/04/09 09:47:17;;;;;;;0.20;0.20;;;;;;;23.38;44.11;98269.94;5052876;28;20067;-68
2022/04/09 09:49:47;;;;;;;0.40;0.10;;;;;;;23.29;43.55;98271.50;5053664;28;20036;-68
2022/04/09 09:52:12;;;;;;;0.65;0.20;;;;;;;23.29;43.71;98269.59;5053875;28;20037;-68
2022/04/09 09:54:54;;;;;;;2.25;0.20;;;;;;;23.31;44.12;98272.06;5053768;28;20032;-68
2022/04/09 09:57:20;;;;;;;1.10;0.30;;;;;;;23.27;43.73;98279.19;5052635;28;20028;-67
2022/04/09 09:59:48;;;;;;;0.75;0.17;;;;;;;23.29;43.71;98277.81;5054235;28;20020;-68
2022/04/09 10:02:19;;;;;;;0.40;0.10;;;;;;;23.31;44.44;98280.28;5053170;28;20025;-67
2022/04/09 10:04:46;;;;;;;0.63;0.20;;;;;;;23.32;44.22;98284.69;5053652;28;20024;-67
2022/04/09 10:07:14;;;;;;;1.23;0.17;;;;;;;23.34;43.95;98280.59;5052695;28;20028;-68
2022/04/09 10:09:39;;;;;;;0.85;0.30;;;;;;;23.37;44.08;98290.22;5053663;28;20025;-67
2022/04/09 10:12:08;;;;;;;1.23;0.10;;;;;;;23.28;44.20;98291.78;5053770;28;20021;-67
2022/04/09 10:14:38;;;;;;;1.67;0.20;;;;;;;23.31;43.66;98283.03;5053224;28;20056;-67
2022/04/09 10:17:06;;;;;;;1.13;0.20;;;;;;;23.30;43.48;98289.59;5054329;28;20071;-68
2022/04/09 10:19:32;;;;;;;0.30;0.20;;;;;;;23.28;43.80;98289.88;5065373;28;20103;-68
2022/04/09 10:21:58;;;;;;;0.80;0.20;;;;;;;23.26;43.65;98299.47;5053424;28;20476;-68
2022/04/09 10:24:26;;;;;;;0.65;0.20;;;;;;;23.26;44.12;98300.28;5053181;28;20111;-67
2022/04/09 10:26:54;;;;;;;0.82;0.30;;;;;;;23.28;43.52;98302.75;5053440;28;20028;-67
2022/04/09 10:29:20;;;;;;;1.77;0.20;;;;;;;23.30;44.09;98306.88;5053327;28;20029;-67
2022/04/09 10:31:51;;;;;;;0.60;0.30;;;;;;;23.26;43.62;98304.94;5051958;28;20132;-67
2022/04/09 10:34:17;;;;;;;1.35;0.15;;;;;;;23.25;43.44;98306.03;5052969;28;20526;-68
2022/04/09 10:36:45;;;;;;;1.13;0.20;;;;;;;23.28;43.49;98314.53;5058067;28;20033;-67
2022/04/09 10:39:29;;;;;;;0.68;0.10;;;;;;;23.26;43.66;98318.66;5052939;28;20480;-67
2022/04/09 10:41:55;;;;;;;0.88;0.57;;;;;;;23.25;43.60;98317.00;5053334;28;20025;-67
2022/04/09 10:44:42;;;;;;;0.75;0.20;;;;;;;23.25;43.04;98319.72;5053330;28;20482;-67
2022/04/09 10:47:10;;;;;;;0.93;0.20;;;;;;;23.25;43.02;98325.22;5053211;28;20021;-66
2022/04/09 10:49:37;;;;;;;0.20;0.13;;;;;;;23.22;43.85;98321.09;5052627;28;20056;-66
2022/04/09 10:52:03;;;;;;;0.70;0.15;;;;;;;23.20;43.20;98326.00;5053024;28;20033;-66
2022/04/09 10:54:28;;;;;;;0.75;0.20;;;;;;;23.26;43.03;98324.13;5053954;28;20017;-68
2022/04/09 10:56:54;;;;;;;0.55;0.28;;;;;;;23.25;43.52;98336.19;5053389;28;20024;-68
2022/04/09 10:59:22;;;;;;;0.50;0.10;;;;;;;23.22;43.06;98332.06;5051658;28;20099;-68
2022/04/09 11:01:50;;;;;;;0.77;0.20;;;;;;;23.25;43.08;98336.19;5053327;28;20020;-68
2022/04/09 11:04:37;;;;;;;0.45;0.20;;;;;;;23.29;42.99;98340.03;5065898;28;20044;-67
2022/04/09 11:07:16;;;;;;;0.40;0.20;;;;;;;23.23;43.27;98343.84;5071541;28;20025;-68
2022/04/09 11:09:41;;;;;;;0.73;0.20;;;;;;;23.24;43.60;98334.53;5052454;28;20056;-69
2022/04/09 11:12:07;;;;;;;0.85;0.30;;;;;;;23.25;43.34;98347.13;5053038;28;20036;-69
2022/04/09 11:14:49;;;;;;;0.98;0.55;;;;;;;23.18;43.81;98347.38;5053734;28;20055;-68
2022/04/09 11:17:19;;;;;;;1.30;0.35;;;;;;;23.19;43.31;98348.19;5054169;28;20029;-67
2022/04/09 11:19:47;;;;;;;0.43;0.10;;;;;;;23.20;43.07;98355.34;5056699;28;20025;-67
2022/04/09 11:22:12;;;;;;;1.23;0.20;;;;;;;23.19;43.98;98353.69;5056592;28;20028;-67
2022/04/09 11:24:41;;;;;;;0.50;0.30;;;;;;;23.21;43.28;98368.78;5056907;28;20032;-67
2022/04/09 11:27:07;;;;;;;0.75;0.30;;;;;;;23.20;43.41;98363.56;5056678;28;20124;-67
2022/04/09 11:29:35;;;;;;;0.93;0.43;;;;;;;23.18;43.97;98365.72;5061816;28;20076;-67
2022/04/09 11:32:02;;;;;;;2.30;0.30;;;;;;;23.22;43.97;98366.84;5056326;28;20045;-67
2022/04/09 11:34:27;;;;;;;0.80;0.10;;;;;;;23.22;44.22;98375.09;5057693;28;20037;-67